sensor_id;sensor_type;location;lat;lon;timestamp;temperature;humidity
34829;DHT22;21042;47.620;12.188;2023-02-15T00:01:48;-0.20;99.90
34829;DHT22;21042;47.620;12.188;2023-02-15T00:04:18;-0.30;99.90
34829;DHT22;21042;47.620;12.188;2023-02-15T00:06:46;-0.20;99.90
34829;DHT22;21042;47.620;12.188;2023-02-15T00:09:12;-0.20;99.90
34829;DHT22;21042;47.620;12.188;2023-02-15T00:11:39;-0.30;99.90
34829;DHT22;21042;47.620;12.188;2023-02-15T00:14:20;-0.30;99.90
34829;DHT22;21042;47.620;12.188;2023-02-15T00:16:48;-0.30;99.90
34829;DHT22;21042;47.620;12.188;2023-02-15T00:19:17;-0.30;99.90
34829;DHT22;21042;47.620;12.188;2023-02-15T00:21:44;-0.30;99.90
34829;DHT22;21042;47.620;12.188;2023-02-15T00:24:13;-0.30;99.90
34829;DHT22;21042;47.620;12.188;2023-02-15T00:26:42;-0.30;99.90
34829;DHT22;21042;47.620;12.188;2023-02-15T00:29:10;-0.30;99.90
34829;DHT22;21042;47.620;12.188;2023-02-15T00:31:37;-0.30;99.90
34829;DHT22;21042;47.620;12.188;2023-02-15T00:36:34;-0.40;99.90
34829;DHT22;21042;47.620;12.188;2023-02-15T00:39:01;-0.30;99.90
34829;DHT22;21042;47.620;12.188;2023-02-15T00:41:28;-0.30;99.90
34829;DHT22;21042;47.620;12.188;2023-02-15T00:43:54;-0.30;99.90
34829;DHT22;21042;47.620;12.188;2023-02-15T00:46:21;-0.40;99.90
34829;DHT22;21042;47.620;12.188;2023-02-15T00:48:48;-0.40;99.90
34829;DHT22;21042;47.620;12.188;2023-02-15T00:51:15;-0.40;99.90
34829;DHT22;21042;47.620;12.188;2023-02-15T00:53:42;-0.40;99.90
34829;DHT22;21042;47.620;12.188;2023-02-15T00:56:10;-0.40;99.90
34829;DHT22;21042;47.620;12.188;2023-02-15T00:58:37;-0.50;99.90
34829;DHT22;21042;47.620;12.188;2023-02-15T01:01:08;-0.50;99.90
34829;DHT22;21042;47.620;12.188;2023-02-15T01:03:35;-0.40;99.90
34829;DHT22;21042;47.620;12.188;2023-02-15T01:06:03;-0.40;99.90
34829;DHT22;21042;47.620;12.188;2023-02-15T01:08:30;-0.40;99.90
34829;DHT22;21042;47.620;12.188;2023-02-15T01:11:06;-0.40;99.90
34829;DHT22;21042;47.620;12.188;2023-02-15T01:13:34;-0.40;99.90
34829;DHT22;21042;47.620;12.188;2023-02-15T01:16:01;-0.40;99.90
34829;DHT22;21042;47.620;12.188;2023-02-15T01:18:29;-0.40;99.90
34829;DHT22;21042;47.620;12.188;2023-02-15T01:20:56;-0.30;99.90
34829;DHT22;21042;47.620;12.188;2023-02-15T01:23:23;-0.30;99.90
34829;DHT22;21042;47.620;12.188;2023-02-15T01:25:50;-0.30;99.90
34829;DHT22;21042;47.620;12.188;2023-02-15T01:28:17;-0.30;99.90
34829;DHT22;21042;47.620;12.188;2023-02-15T01:30:44;-0.20;99.90
34829;DHT22;21042;47.620;12.188;2023-02-15T01:33:11;-0.20;99.90
34829;DHT22;21042;47.620;12.188;2023-02-15T01:35:45;-0.30;99.90
34829;DHT22;21042;47.620;12.188;2023-02-15T01:38:13;-0.40;99.90
34829;DHT22;21042;47.620;12.188;2023-02-15T01:40:40;-0.60;99.90
34829;DHT22;21042;47.620;12.188;2023-02-15T01:43:10;-0.70;99.90
34829;DHT22;21042;47.620;12.188;2023-02-15T01:45:38;-0.90;99.90
34829;DHT22;21042;47.620;12.188;2023-02-15T01:48:21;-1.00;99.90
34829;DHT22;21042;47.620;12.188;2023-02-15T01:50:55;-1.10;99.90
34829;DHT22;21042;47.620;12.188;2023-02-15T01:53:27;-1.10;99.90
34829;DHT22;21042;47.620;12.188;2023-02-15T01:56:13;-1.10;99.90
34829;DHT22;21042;47.620;12.188;2023-02-15T01:58:42;-1.10;99.90
34829;DHT22;21042;47.620;12.188;2023-02-15T02:01:10;-1.10;99.90
34829;DHT22;21042;47.620;12.188;2023-02-15T02:06:26;-1.00;99.90
34829;DHT22;21042;47.620;12.188;2023-02-15T02:08:54;-1.00;99.90
34829;DHT22;21042;47.620;12.188;2023-02-15T02:11:21;-0.90;99.90
34829;DHT22;21042;47.620;12.188;2023-02-15T02:13:49;-1.00;99.90
34829;DHT22;21042;47.620;12.188;2023-02-15T02:16:45;-1.00;99.90
34829;DHT22;21042;47.620;12.188;2023-02-15T02:25:11;-1.00;99.90
34829;DHT22;21042;47.620;12.188;2023-02-15T02:31:02;-1.10;99.90
34829;DHT22;21042;47.620;12.188;2023-02-15T02:39:33;-1.00;99.90
34829;DHT22;21042;47.620;12.188;2023-02-15T02:47:33;-0.70;99.90
34829;DHT22;21042;47.620;12.188;2023-02-15T02:50:07;-0.70;99.90
34829;DHT22;21042;47.620;12.188;2023-02-15T02:52:43;-0.80;99.90
34829;DHT22;21042;47.620;12.188;2023-02-15T03:00:36;-1.00;99.90
34829;DHT22;21042;47.620;12.188;2023-02-15T03:03:12;-1.00;99.90
34829;DHT22;21042;47.620;12.188;2023-02-15T03:05:44;-1.00;99.90
34829;DHT22;21042;47.620;12.188;2023-02-15T03:08:14;-1.00;99.90
34829;DHT22;21042;47.620;12.188;2023-02-15T03:10:59;-1.20;99.90
34829;DHT22;21042;47.620;12.188;2023-02-15T03:13:27;-1.40;99.90
34829;DHT22;21042;47.620;12.188;2023-02-15T03:15:55;-1.50;99.90
34829;DHT22;21042;47.620;12.188;2023-02-15T03:18:51;-1.60;99.90
34829;DHT22;21042;47.620;12.188;2023-02-15T03:21:55;-1.60;99.90
34829;DHT22;21042;47.620;12.188;2023-02-15T03:24:44;-1.60;99.90
34829;DHT22;21042;47.620;12.188;2023-02-15T03:27:15;-1.60;99.90
34829;DHT22;21042;47.620;12.188;2023-02-15T03:29:52;-1.60;99.90
34829;DHT22;21042;47.620;12.188;2023-02-15T03:32:19;-1.60;99.90
34829;DHT22;21042;47.620;12.188;2023-02-15T03:34:48;-1.60;99.90
34829;DHT22;21042;47.620;12.188;2023-02-15T03:37:47;-1.50;99.90
34829;DHT22;21042;47.620;12.188;2023-02-15T03:40:30;-1.60;99.90
34829;DHT22;21042;47.620;12.188;2023-02-15T03:43:21;-1.60;99.90
34829;DHT22;21042;47.620;12.188;2023-02-15T03:45:54;-1.50;99.90
34829;DHT22;21042;47.620;12.188;2023-02-15T03:48:47;-1.50;99.90
34829;DHT22;21042;47.620;12.188;2023-02-15T03:51:16;-1.50;99.90
34829;DHT22;21042;47.620;12.188;2023-02-15T03:56:31;-1.50;99.90
34829;DHT22;21042;47.620;12.188;2023-02-15T03:58:59;-1.50;99.90
34829;DHT22;21042;47.620;12.188;2023-02-15T04:01:59;-1.50;99.90
34829;DHT22;21042;47.620;12.188;2023-02-15T04:04:41;-1.50;99.90
34829;DHT22;21042;47.620;12.188;2023-02-15T04:07:09;-1.50;99.90
34829;DHT22;21042;47.620;12.188;2023-02-15T04:09:36;-1.40;99.90
34829;DHT22;21042;47.620;12.188;2023-02-15T04:12:21;-1.40;99.90
34829;DHT22;21042;47.620;12.188;2023-02-15T04:14:48;-1.40;99.90
34829;DHT22;21042;47.620;12.188;2023-02-15T04:17:33;-1.50;99.90
34829;DHT22;21042;47.620;12.188;2023-02-15T04:20:02;-1.50;99.90
34829;DHT22;21042;47.620;12.188;2023-02-15T04:22:47;-1.60;99.90
34829;DHT22;21042;47.620;12.188;2023-02-15T04:25:32;-1.60;99.90
34829;DHT22;21042;47.620;12.188;2023-02-15T04:27:59;-1.60;99.90
34829;DHT22;21042;47.620;12.188;2023-02-15T04:30:26;-1.60;99.90
34829;DHT22;21042;47.620;12.188;2023-02-15T04:32:54;-1.50;99.90
34829;DHT22;21042;47.620;12.188;2023-02-15T04:35:21;-1.50;99.90
34829;DHT22;21042;47.620;12.188;2023-02-15T04:37:49;-1.40;99.90
34829;DHT22;21042;47.620;12.188;2023-02-15T04:40:16;-1.40;99.90
34829;DHT22;21042;47.620;12.188;2023-02-15T04:42:47;-1.30;99.90
34829;DHT22;21042;47.620;12.188;2023-02-15T04:45:15;-1.30;99.90
34829;DHT22;21042;47.620;12.188;2023-02-15T04:47:42;-1.30;99.90
34829;DHT22;21042;47.620;12.188;2023-02-15T04:50:09;-1.30;99.90
34829;DHT22;21042;47.620;12.188;2023-02-15T04:52:36;-1.30;99.90
34829;DHT22;21042;47.620;12.188;2023-02-15T04:55:03;-1.40;99.90
34829;DHT22;21042;47.620;12.188;2023-02-15T04:57:30;-1.40;99.90
34829;DHT22;21042;47.620;12.188;2023-02-15T04:59:57;-1.50;99.90
34829;DHT22;21042;47.620;12.188;2023-02-15T05:02:25;-1.60;99.90
34829;DHT22;21042;47.620;12.188;2023-02-15T05:04:52;-1.80;99.90
34829;DHT22;21042;47.620;12.188;2023-02-15T05:07:19;-1.90;99.90
34829;DHT22;21042;47.620;12.188;2023-02-15T05:09:47;-1.90;99.90
34829;DHT22;21042;47.620;12.188;2023-02-15T05:12:13;-1.90;99.90
34829;DHT22;21042;47.620;12.188;2023-02-15T05:14:40;-2.00;99.90
34829;DHT22;21042;47.620;12.188;2023-02-15T05:17:07;-2.00;99.90
34829;DHT22;21042;47.620;12.188;2023-02-15T05:19:33;-2.00;99.90
34829;DHT22;21042;47.620;12.188;2023-02-15T05:22:00;-1.90;99.90
34829;DHT22;21042;47.620;12.188;2023-02-15T05:24:27;-1.80;99.90
34829;DHT22;21042;47.620;12.188;2023-02-15T05:27:12;-1.80;99.90
34829;DHT22;21042;47.620;12.188;2023-02-15T05:29:58;-1.80;99.90
34829;DHT22;21042;47.620;12.188;2023-02-15T05:32:25;-1.80;99.90
34829;DHT22;21042;47.620;12.188;2023-02-15T05:34:52;-1.80;99.90
34829;DHT22;21042;47.620;12.188;2023-02-15T05:37:18;-1.90;99.90
34829;DHT22;21042;47.620;12.188;2023-02-15T05:39:45;-1.90;99.90
34829;DHT22;21042;47.620;12.188;2023-02-15T05:42:12;-1.80;99.90
34829;DHT22;21042;47.620;12.188;2023-02-15T05:44:38;-1.80;99.90
34829;DHT22;21042;47.620;12.188;2023-02-15T05:47:05;-1.80;99.90
34829;DHT22;21042;47.620;12.188;2023-02-15T05:49:33;-1.90;99.90
34829;DHT22;21042;47.620;12.188;2023-02-15T05:52:00;-1.80;99.90
34829;DHT22;21042;47.620;12.188;2023-02-15T05:54:27;-1.80;99.90
34829;DHT22;21042;47.620;12.188;2023-02-15T05:56:54;-1.80;99.90
34829;DHT22;21042;47.620;12.188;2023-02-15T05:59:21;-1.90;99.90
34829;DHT22;21042;47.620;12.188;2023-02-15T06:01:48;-1.80;99.90
34829;DHT22;21042;47.620;12.188;2023-02-15T06:04:14;-1.90;99.90
34829;DHT22;21042;47.620;12.188;2023-02-15T06:06:41;-1.90;99.90
34829;DHT22;21042;47.620;12.188;2023-02-15T06:09:08;-1.90;99.90
34829;DHT22;21042;47.620;12.188;2023-02-15T06:11:34;-1.90;99.90
34829;DHT22;21042;47.620;12.188;2023-02-15T06:14:01;-1.90;99.90
34829;DHT22;21042;47.620;12.188;2023-02-15T06:16:28;-2.00;99.90
34829;DHT22;21042;47.620;12.188;2023-02-15T06:18:54;-2.00;99.90
34829;DHT22;21042;47.620;12.188;2023-02-15T06:21:21;-2.00;99.90
34829;DHT22;21042;47.620;12.188;2023-02-15T06:23:48;-2.00;99.90
34829;DHT22;21042;47.620;12.188;2023-02-15T06:26:14;-1.90;99.90
34829;DHT22;21042;47.620;12.188;2023-02-15T06:28:41;-1.90;99.90
34829;DHT22;21042;47.620;12.188;2023-02-15T06:31:08;-1.90;99.90
34829;DHT22;21042;47.620;12.188;2023-02-15T06:33:35;-1.80;99.90
34829;DHT22;21042;47.620;12.188;2023-02-15T06:36:02;-1.80;99.90
34829;DHT22;21042;47.620;12.188;2023-02-15T06:38:30;-1.80;99.90
34829;DHT22;21042;47.620;12.188;2023-02-15T06:40:57;-1.70;99.90
34829;DHT22;21042;47.620;12.188;2023-02-15T06:43:24;-1.70;99.90
34829;DHT22;21042;47.620;12.188;2023-02-15T06:45:51;-1.60;99.90
34829;DHT22;21042;47.620;12.188;2023-02-15T06:48:17;-1.60;99.90
34829;DHT22;21042;47.620;12.188;2023-02-15T06:50:44;-1.70;99.90
34829;DHT22;21042;47.620;12.188;2023-02-15T06:53:11;-1.70;99.90
34829;DHT22;21042;47.620;12.188;2023-02-15T06:55:38;-1.60;99.90
34829;DHT22;21042;47.620;12.188;2023-02-15T06:58:04;-1.60;99.90
34829;DHT22;21042;47.620;12.188;2023-02-15T07:00:31;-1.60;99.90
34829;DHT22;21042;47.620;12.188;2023-02-15T07:02:58;-1.70;99.90
34829;DHT22;21042;47.620;12.188;2023-02-15T07:05:26;-1.80;99.90
34829;DHT22;21042;47.620;12.188;2023-02-15T07:07:58;-1.90;99.90
34829;DHT22;21042;47.620;12.188;2023-02-15T07:10:25;-1.90;99.90
34829;DHT22;21042;47.620;12.188;2023-02-15T07:12:53;-1.80;99.90
34829;DHT22;21042;47.620;12.188;2023-02-15T07:15:20;-1.70;99.90
34829;DHT22;21042;47.620;12.188;2023-02-15T07:17:48;-1.70;99.90
34829;DHT22;21042;47.620;12.188;2023-02-15T07:20:20;-1.60;99.90
34829;DHT22;21042;47.620;12.188;2023-02-15T07:22:48;-1.60;99.90
34829;DHT22;21042;47.620;12.188;2023-02-15T07:25:16;-1.60;99.90
34829;DHT22;21042;47.620;12.188;2023-02-15T07:27:43;-1.60;99.90
34829;DHT22;21042;47.620;12.188;2023-02-15T07:30:13;-1.60;99.90
34829;DHT22;21042;47.620;12.188;2023-02-15T07:32:41;-1.60;99.90
34829;DHT22;21042;47.620;12.188;2023-02-15T07:35:30;-1.70;99.90
34829;DHT22;21042;47.620;12.188;2023-02-15T07:37:57;-1.80;99.90
34829;DHT22;21042;47.620;12.188;2023-02-15T07:40:23;-1.80;99.90
34829;DHT22;21042;47.620;12.188;2023-02-15T07:42:51;-1.90;99.90
34829;DHT22;21042;47.620;12.188;2023-02-15T07:45:22;-1.90;99.90
34829;DHT22;21042;47.620;12.188;2023-02-15T07:47:48;-1.80;99.90
34829;DHT22;21042;47.620;12.188;2023-02-15T07:50:15;-1.80;99.90
34829;DHT22;21042;47.620;12.188;2023-02-15T07:52:42;-1.70;99.90
34829;DHT22;21042;47.620;12.188;2023-02-15T07:55:09;-1.50;99.90
34829;DHT22;21042;47.620;12.188;2023-02-15T07:57:45;-1.40;99.90
34829;DHT22;21042;47.620;12.188;2023-02-15T08:00:13;-1.30;99.90
34829;DHT22;21042;47.620;12.188;2023-02-15T08:02:41;-1.30;99.90
34829;DHT22;21042;47.620;12.188;2023-02-15T08:05:07;-1.20;99.90
34829;DHT22;21042;47.620;12.188;2023-02-15T08:07:34;-1.10;99.90
34829;DHT22;21042;47.620;12.188;2023-02-15T08:10:01;-0.90;99.90
34829;DHT22;21042;47.620;12.188;2023-02-15T08:12:28;-0.80;99.90
34829;DHT22;21042;47.620;12.188;2023-02-15T08:14:54;-0.70;99.90
34829;DHT22;21042;47.620;12.188;2023-02-15T08:17:21;-0.60;99.90
34829;DHT22;21042;47.620;12.188;2023-02-15T08:19:48;-0.40;99.90
34829;DHT22;21042;47.620;12.188;2023-02-15T08:22:15;-0.40;99.90
34829;DHT22;21042;47.620;12.188;2023-02-15T08:24:41;-0.30;99.90
34829;DHT22;21042;47.620;12.188;2023-02-15T08:27:10;-0.20;99.90
34829;DHT22;21042;47.620;12.188;2023-02-15T08:29:37;0.00;99.90
34829;DHT22;21042;47.620;12.188;2023-02-15T08:32:05;0.00;99.90
34829;DHT22;21042;47.620;12.188;2023-02-15T08:34:35;0.10;99.90
34829;DHT22;21042;47.620;12.188;2023-02-15T08:37:02;0.30;99.90
34829;DHT22;21042;47.620;12.188;2023-02-15T08:39:29;0.40;99.90
34829;DHT22;21042;47.620;12.188;2023-02-15T08:41:56;0.60;99.90
34829;DHT22;21042;47.620;12.188;2023-02-15T08:44:23;0.80;99.90
34829;DHT22;21042;47.620;12.188;2023-02-15T08:46:50;1.00;99.90
34829;DHT22;21042;47.620;12.188;2023-02-15T08:49:19;1.10;99.90
34829;DHT22;21042;47.620;12.188;2023-02-15T08:51:47;1.30;99.90
34829;DHT22;21042;47.620;12.188;2023-02-15T08:54:20;1.40;99.90
34829;DHT22;21042;47.620;12.188;2023-02-15T08:56:47;1.70;99.90
34829;DHT22;21042;47.620;12.188;2023-02-15T08:59:18;1.90;99.90
34829;DHT22;21042;47.620;12.188;2023-02-15T09:01:46;2.00;99.90
34829;DHT22;21042;47.620;12.188;2023-02-15T09:04:13;2.20;99.90
34829;DHT22;21042;47.620;12.188;2023-02-15T09:06:43;2.40;99.90
34829;DHT22;21042;47.620;12.188;2023-02-15T09:09:13;2.60;99.90
34829;DHT22;21042;47.620;12.188;2023-02-15T09:11:42;2.80;99.90
34829;DHT22;21042;47.620;12.188;2023-02-15T09:14:12;2.80;99.90
34829;DHT22;21042;47.620;12.188;2023-02-15T09:16:44;3.00;99.90
34829;DHT22;21042;47.620;12.188;2023-02-15T09:19:18;3.20;99.90
34829;DHT22;21042;47.620;12.188;2023-02-15T09:21:45;3.30;99.90
34829;DHT22;21042;47.620;12.188;2023-02-15T09:24:15;3.40;99.90
34829;DHT22;21042;47.620;12.188;2023-02-15T09:26:44;3.60;99.90
34829;DHT22;21042;47.620;12.188;2023-02-15T09:29:12;3.70;99.90
34829;DHT22;21042;47.620;12.188;2023-02-15T09:31:42;3.90;99.90
34829;DHT22;21042;47.620;12.188;2023-02-15T09:34:14;3.90;99.90
34829;DHT22;21042;47.620;12.188;2023-02-15T09:36:45;4.10;99.90
34829;DHT22;21042;47.620;12.188;2023-02-15T09:39:18;4.10;99.90
34829;DHT22;21042;47.620;12.188;2023-02-15T09:42:13;4.30;99.90
34829;DHT22;21042;47.620;12.188;2023-02-15T09:47:37;4.50;99.90
34829;DHT22;21042;47.620;12.188;2023-02-15T09:55:48;4.90;99.90
34829;DHT22;21042;47.620;12.188;2023-02-15T10:06:24;5.20;99.90
34829;DHT22;21042;47.620;12.188;2023-02-15T10:12:11;5.50;99.90
34829;DHT22;21042;47.620;12.188;2023-02-15T10:28:18;6.10;99.90
34829;DHT22;21042;47.620;12.188;2023-02-15T10:30:50;6.10;99.90
34829;DHT22;21042;47.620;12.188;2023-02-15T10:33:39;6.30;99.90
34829;DHT22;21042;47.620;12.188;2023-02-15T10:44:18;6.40;99.90
34829;DHT22;21042;47.620;12.188;2023-02-15T10:50:06;6.50;99.90
34829;DHT22;21042;47.620;12.188;2023-02-15T10:52:56;6.60;99.90
34829;DHT22;21042;47.620;12.188;2023-02-15T11:00:58;6.90;99.90
34829;DHT22;21042;47.620;12.188;2023-02-15T11:06:35;6.90;99.90
34829;DHT22;21042;47.620;12.188;2023-02-15T11:09:12;7.10;99.90
34829;DHT22;21042;47.620;12.188;2023-02-15T11:11:40;8.00;99.90
34829;DHT22;21042;47.620;12.188;2023-02-15T11:16:51;7.40;99.90
34829;DHT22;21042;47.620;12.188;2023-02-15T11:19:26;7.40;99.90
34829;DHT22;21042;47.620;12.188;2023-02-15T11:21:58;7.60;99.90
34829;DHT22;21042;47.620;12.188;2023-02-15T11:24:30;7.70;99.90
34829;DHT22;21042;47.620;12.188;2023-02-15T11:27:10;7.80;99.90
34829;DHT22;21042;47.620;12.188;2023-02-15T11:29:47;7.80;99.90
34829;DHT22;21042;47.620;12.188;2023-02-15T11:32:27;7.90;99.90
34829;DHT22;21042;47.620;12.188;2023-02-15T11:35:05;7.90;99.90
34829;DHT22;21042;47.620;12.188;2023-02-15T11:37:54;8.00;99.90
34829;DHT22;21042;47.620;12.188;2023-02-15T11:40:31;8.10;99.90
34829;DHT22;21042;47.620;12.188;2023-02-15T11:43:03;8.10;99.90
34829;DHT22;21042;47.620;12.188;2023-02-15T11:45:33;8.20;99.90
34829;DHT22;21042;47.620;12.188;2023-02-15T11:48:13;8.20;99.90
34829;DHT22;21042;47.620;12.188;2023-02-15T11:50:42;8.30;99.90
34829;DHT22;21042;47.620;12.188;2023-02-15T11:53:18;8.30;99.90
34829;DHT22;21042;47.620;12.188;2023-02-15T11:55:47;8.40;99.90
34829;DHT22;21042;47.620;12.188;2023-02-15T11:58:35;8.50;99.90
34829;DHT22;21042;47.620;12.188;2023-02-15T12:04:16;8.70;99.90
34829;DHT22;21042;47.620;12.188;2023-02-15T12:10:04;8.90;99.10
34829;DHT22;21042;47.620;12.188;2023-02-15T12:12:38;9.10;98.50
34829;DHT22;21042;47.620;12.188;2023-02-15T12:15:07;9.10;98.80
34829;DHT22;21042;47.620;12.188;2023-02-15T12:17:48;9.20;98.40
34829;DHT22;21042;47.620;12.188;2023-02-15T12:22:54;9.30;98.90
34829;DHT22;21042;47.620;12.188;2023-02-15T12:25:41;9.50;99.20
34829;DHT22;21042;47.620;12.188;2023-02-15T12:28:25;9.50;99.30
34829;DHT22;21042;47.620;12.188;2023-02-15T12:30:55;9.60;99.40
34829;DHT22;21042;47.620;12.188;2023-02-15T12:36:08;9.60;98.50
34829;DHT22;21042;47.620;12.188;2023-02-15T12:38:37;9.70;98.50
34829;DHT22;21042;47.620;12.188;2023-02-15T12:41:21;9.80;98.50
34829;DHT22;21042;47.620;12.188;2023-02-15T12:44:06;10.00;97.60
34829;DHT22;21042;47.620;12.188;2023-02-15T12:46:40;9.90;96.90
34829;DHT22;21042;47.620;12.188;2023-02-15T12:52:11;10.10;96.70
34829;DHT22;21042;47.620;12.188;2023-02-15T12:54:50;10.10;95.70
34829;DHT22;21042;47.620;12.188;2023-02-15T12:59:57;10.20;95.20
34829;DHT22;21042;47.620;12.188;2023-02-15T13:04:57;10.30;94.70
34829;DHT22;21042;47.620;12.188;2023-02-15T13:07:31;10.30;98.10
34829;DHT22;21042;47.620;12.188;2023-02-15T13:09:58;10.30;99.90
34829;DHT22;21042;47.620;12.188;2023-02-15T13:12:27;10.10;99.90
34829;DHT22;21042;47.620;12.188;2023-02-15T13:14:57;10.10;99.90
34829;DHT22;21042;47.620;12.188;2023-02-15T13:17:28;10.00;99.90
34829;DHT22;21042;47.620;12.188;2023-02-15T13:20:00;10.00;99.90
34829;DHT22;21042;47.620;12.188;2023-02-15T13:22:45;10.90;99.90
34829;DHT22;21042;47.620;12.188;2023-02-15T13:25:19;10.10;99.90
34829;DHT22;21042;47.620;12.188;2023-02-15T13:27:51;10.00;99.90
34829;DHT22;21042;47.620;12.188;2023-02-15T13:30:28;9.90;99.90
34829;DHT22;21042;47.620;12.188;2023-02-15T13:33:04;9.80;99.90
34829;DHT22;21042;47.620;12.188;2023-02-15T13:38:46;9.50;99.90
34829;DHT22;21042;47.620;12.188;2023-02-15T13:41:32;9.40;99.90
34829;DHT22;21042;47.620;12.188;2023-02-15T13:44:12;9.20;99.90
34829;DHT22;21042;47.620;12.188;2023-02-15T13:47:04;9.10;99.90
34829;DHT22;21042;47.620;12.188;2023-02-15T13:49:37;9.00;99.90
34829;DHT22;21042;47.620;12.188;2023-02-15T13:52:21;9.00;99.90
34829;DHT22;21042;47.620;12.188;2023-02-15T13:55:17;9.00;99.90
34829;DHT22;21042;47.620;12.188;2023-02-15T13:58:16;9.00;99.90
34829;DHT22;21042;47.620;12.188;2023-02-15T14:00:58;8.90;99.90
34829;DHT22;21042;47.620;12.188;2023-02-15T14:06:50;8.90;99.90
34829;DHT22;21042;47.620;12.188;2023-02-15T14:09:23;9.00;99.90
34829;DHT22;21042;47.620;12.188;2023-02-15T14:26:25;9.20;99.90
34829;DHT22;21042;47.620;12.188;2023-02-15T14:31:46;9.30;99.90
34829;DHT22;21042;47.620;12.188;2023-02-15T14:36:52;9.30;99.90
34829;DHT22;21042;47.620;12.188;2023-02-15T14:42:48;9.30;99.90
34829;DHT22;21042;47.620;12.188;2023-02-15T14:45:30;9.30;99.90
34829;DHT22;21042;47.620;12.188;2023-02-15T14:48:15;9.30;99.90
34829;DHT22;21042;47.620;12.188;2023-02-15T14:50:46;9.20;99.90
34829;DHT22;21042;47.620;12.188;2023-02-15T14:53:33;9.20;99.90
34829;DHT22;21042;47.620;12.188;2023-02-15T14:56:21;9.10;99.90
34829;DHT22;21042;47.620;12.188;2023-02-15T15:01:40;8.90;99.90
34829;DHT22;21042;47.620;12.188;2023-02-15T15:04:23;8.90;99.90
34829;DHT22;21042;47.620;12.188;2023-02-15T15:07:19;8.80;99.90
34829;DHT22;21042;47.620;12.188;2023-02-15T15:18:10;8.60;99.90
34829;DHT22;21042;47.620;12.188;2023-02-15T15:20:56;8.60;99.90
34829;DHT22;21042;47.620;12.188;2023-02-15T15:23:36;8.60;99.90
34829;DHT22;21042;47.620;12.188;2023-02-15T15:31:35;8.40;99.90
34829;DHT22;21042;47.620;12.188;2023-02-15T15:37:16;8.30;99.90
34829;DHT22;21042;47.620;12.188;2023-02-15T15:40:09;8.20;99.90
34829;DHT22;21042;47.620;12.188;2023-02-15T15:42:50;8.20;99.90
34829;DHT22;21042;47.620;12.188;2023-02-15T15:50:40;8.10;99.90
34829;DHT22;21042;47.620;12.188;2023-02-15T15:53:20;8.00;99.90
34829;DHT22;21042;47.620;12.188;2023-02-15T15:55:50;7.90;99.90
34829;DHT22;21042;47.620;12.188;2023-02-15T15:58:19;7.80;99.90
34829;DHT22;21042;47.620;12.188;2023-02-15T16:03:28;7.40;99.90
34829;DHT22;21042;47.620;12.188;2023-02-15T16:05:55;7.30;99.90
34829;DHT22;21042;47.620;12.188;2023-02-15T16:08:34;7.30;99.90
34829;DHT22;21042;47.620;12.188;2023-02-15T16:11:21;7.30;99.90
34829;DHT22;21042;47.620;12.188;2023-02-15T16:13:49;7.20;99.90
34829;DHT22;21042;47.620;12.188;2023-02-15T16:16:23;7.10;99.90
34829;DHT22;21042;47.620;12.188;2023-02-15T16:18:51;7.10;99.90
34829;DHT22;21042;47.620;12.188;2023-02-15T16:21:22;7.00;99.90
34829;DHT22;21042;47.620;12.188;2023-02-15T16:24:15;6.80;99.90
34829;DHT22;21042;47.620;12.188;2023-02-15T16:29:31;6.30;99.90
34829;DHT22;21042;47.620;12.188;2023-02-15T16:32:18;6.00;99.90
34829;DHT22;21042;47.620;12.188;2023-02-15T16:34:59;5.80;99.90
34829;DHT22;21042;47.620;12.188;2023-02-15T16:41:48;5.80;99.90
34829;DHT22;21042;47.620;12.188;2023-02-15T16:44:18;5.60;99.90
34829;DHT22;21042;47.620;12.188;2023-02-15T16:46:50;5.50;99.90
34829;DHT22;21042;47.620;12.188;2023-02-15T16:49:21;5.40;99.90
34829;DHT22;21042;47.620;12.188;2023-02-15T16:51:59;5.30;99.90
34829;DHT22;21042;47.620;12.188;2023-02-15T16:54:27;5.40;99.90
34829;DHT22;21042;47.620;12.188;2023-02-15T16:56:54;5.30;99.90
34829;DHT22;21042;47.620;12.188;2023-02-15T16:59:38;5.20;99.90
34829;DHT22;21042;47.620;12.188;2023-02-15T17:02:18;5.20;99.90
34829;DHT22;21042;47.620;12.188;2023-02-15T17:05:14;5.10;99.90
34829;DHT22;21042;47.620;12.188;2023-02-15T17:07:49;5.10;99.90
34829;DHT22;21042;47.620;12.188;2023-02-15T17:10:38;5.00;99.90
34829;DHT22;21042;47.620;12.188;2023-02-15T17:13:16;4.80;99.90
34829;DHT22;21042;47.620;12.188;2023-02-15T17:18:39;4.90;99.90
34829;DHT22;21042;47.620;12.188;2023-02-15T17:21:13;4.80;99.90
34829;DHT22;21042;47.620;12.188;2023-02-15T17:23:45;4.70;99.90
34829;DHT22;21042;47.620;12.188;2023-02-15T17:26:22;4.50;99.90
34829;DHT22;21042;47.620;12.188;2023-02-15T17:31:19;4.50;99.90
34829;DHT22;21042;47.620;12.188;2023-02-15T17:33:47;4.40;99.90
34829;DHT22;21042;47.620;12.188;2023-02-15T17:36:19;4.40;99.90
34829;DHT22;21042;47.620;12.188;2023-02-15T17:41:32;4.40;99.90
34829;DHT22;21042;47.620;12.188;2023-02-15T17:44:01;4.40;99.90
34829;DHT22;21042;47.620;12.188;2023-02-15T17:46:33;4.40;99.90
34829;DHT22;21042;47.620;12.188;2023-02-15T17:49:01;4.30;99.90
34829;DHT22;21042;47.620;12.188;2023-02-15T17:51:30;4.30;99.90
34829;DHT22;21042;47.620;12.188;2023-02-15T17:53:57;4.20;99.90
34829;DHT22;21042;47.620;12.188;2023-02-15T17:56:56;4.10;99.90
34829;DHT22;21042;47.620;12.188;2023-02-15T17:59:28;4.00;99.90
34829;DHT22;21042;47.620;12.188;2023-02-15T18:01:55;4.00;99.90
34829;DHT22;21042;47.620;12.188;2023-02-15T18:04:40;4.00;99.90
34829;DHT22;21042;47.620;12.188;2023-02-15T18:07:26;3.90;99.90
34829;DHT22;21042;47.620;12.188;2023-02-15T18:10:17;3.80;99.90
34829;DHT22;21042;47.620;12.188;2023-02-15T18:13:02;3.60;99.90
34829;DHT22;21042;47.620;12.188;2023-02-15T18:15:29;3.60;99.90
34829;DHT22;21042;47.620;12.188;2023-02-15T18:17:56;3.60;99.90
34829;DHT22;21042;47.620;12.188;2023-02-15T18:20:27;3.50;99.90
34829;DHT22;21042;47.620;12.188;2023-02-15T18:22:54;3.50;99.90
34829;DHT22;21042;47.620;12.188;2023-02-15T18:25:22;3.50;99.90
34829;DHT22;21042;47.620;12.188;2023-02-15T18:27:51;3.60;99.90
34829;DHT22;21042;47.620;12.188;2023-02-15T18:30:22;3.60;99.90
34829;DHT22;21042;47.620;12.188;2023-02-15T18:32:53;3.60;99.90
34829;DHT22;21042;47.620;12.188;2023-02-15T18:35:24;3.60;99.90
34829;DHT22;21042;47.620;12.188;2023-02-15T18:37:52;3.50;99.90
34829;DHT22;21042;47.620;12.188;2023-02-15T18:40:23;3.30;99.90
34829;DHT22;21042;47.620;12.188;2023-02-15T18:42:51;3.20;99.90
34829;DHT22;21042;47.620;12.188;2023-02-15T18:45:21;3.10;99.90
34829;DHT22;21042;47.620;12.188;2023-02-15T18:47:50;3.10;99.90
34829;DHT22;21042;47.620;12.188;2023-02-15T18:50:19;3.10;99.90
34829;DHT22;21042;47.620;12.188;2023-02-15T18:52:47;3.00;99.90
34829;DHT22;21042;47.620;12.188;2023-02-15T18:55:24;3.00;99.90
34829;DHT22;21042;47.620;12.188;2023-02-15T18:57:53;3.00;99.90